createdAt,value
2019-01-20T00:00:59.240Z,26.07
2019-01-20T00:01:58.795Z,25.91
2019-01-20T00:02:58.708Z,26.00
2019-01-20T00:03:58.340Z,26.00
2019-01-20T00:04:58.683Z,25.96
2019-01-20T00:05:58.332Z,25.99
2019-01-20T00:06:58.781Z,25.91
2019-01-20T00:07:58.512Z,25.93
2019-01-20T00:08:58.292Z,25.93
2019-01-20T00:09:58.755Z,25.97
2019-01-20T00:10:58.195Z,25.86
2019-01-20T00:11:58.213Z,25.82
2019-01-20T00:12:58.326Z,25.89
2019-01-20T00:13:59.293Z,25.96
2019-01-20T00:14:59.580Z,25.86
2019-01-20T00:15:58.252Z,25.89
2019-01-20T00:16:58.076Z,25.88
2019-01-20T00:17:58.198Z,25.86
2019-01-20T00:18:58.041Z,25.86
2019-01-20T00:19:58.021Z,25.89
2019-01-20T00:20:57.979Z,25.89
2019-01-20T00:21:58.076Z,25.85
2019-01-20T00:22:58.396Z,25.86
2019-01-20T00:23:58.034Z,25.88
2019-01-20T00:24:57.978Z,25.82
2019-01-20T00:25:58.016Z,25.81
2019-01-20T00:26:58.283Z,25.71
2019-01-20T00:27:58.686Z,25.67
2019-01-20T00:28:57.779Z,25.67
2019-01-20T00:29:57.887Z,25.66
2019-01-20T00:30:57.658Z,25.56
2019-01-20T00:31:57.914Z,25.57
2019-01-20T00:32:57.863Z,25.56
2019-01-20T00:33:57.510Z,25.54
2019-01-20T00:34:57.487Z,25.47
2019-01-20T00:35:57.473Z,25.52
2019-01-20T00:36:57.445Z,25.38
2019-01-20T00:37:57.524Z,25.41
2019-01-20T00:38:57.415Z,25.47
2019-01-20T00:39:57.396Z,25.44
2019-01-20T00:40:57.492Z,25.41
2019-01-20T00:41:57.433Z,25.41
2019-01-20T00:42:57.397Z,25.38
2019-01-20T00:43:57.266Z,25.41
2019-01-20T00:45:02.637Z,25.39
2019-01-20T00:45:57.209Z,25.37
2019-01-20T00:46:57.186Z,25.37
2019-01-20T00:47:57.186Z,25.38
2019-01-20T00:48:57.240Z,25.32
2019-01-20T00:49:57.159Z,25.29
2019-01-20T00:50:57.142Z,25.39
2019-01-20T00:51:57.097Z,25.34
2019-01-20T00:52:57.047Z,25.29
2019-01-20T00:53:57.144Z,25.33
2019-01-20T00:54:57.025Z,25.24
2019-01-20T00:55:56.978Z,25.32
2019-01-20T00:56:57.105Z,25.22
2019-01-20T00:57:56.918Z,25.29
2019-01-20T00:58:57.059Z,25.23
2019-01-20T00:59:56.906Z,25.26
2019-01-20T01:00:56.875Z,25.23
2019-01-20T01:01:56.837Z,25.15
2019-01-20T01:02:56.843Z,25.09
2019-01-20T01:03:56.901Z,25.11
2019-01-20T01:04:56.745Z,25.19
2019-01-20T01:05:56.735Z,25.14
2019-01-20T01:06:56.722Z,25.08
2019-01-20T01:07:56.685Z,25.12
2019-01-20T01:08:56.771Z,25.02
2019-01-20T01:09:56.683Z,25.08
2019-01-20T01:10:56.633Z,24.97
2019-01-20T01:11:56.694Z,25.01
2019-01-20T01:12:56.582Z,24.93
2019-01-20T01:13:56.528Z,25.09
2019-01-20T01:14:56.604Z,25.00
2019-01-20T01:16:31.509Z,25.00
2019-01-20T01:17:31.471Z,24.93
2019-01-20T01:18:31.460Z,24.94
2019-01-20T01:19:31.425Z,24.93
2019-01-20T01:20:31.516Z,24.90
2019-01-20T01:21:31.549Z,24.92
2019-01-20T01:22:31.343Z,24.80
2019-01-20T01:23:31.320Z,24.89
2019-01-20T01:24:31.309Z,24.82
2019-01-20T01:25:31.283Z,24.93
2019-01-20T01:26:31.373Z,24.82
2019-01-20T01:27:31.361Z,24.80
2019-01-20T01:28:31.261Z,24.80
2019-01-20T01:29:31.226Z,24.82
2019-01-20T01:30:31.146Z,24.80
2019-01-20T01:31:31.234Z,24.78
2019-01-20T01:32:31.106Z,24.74
2019-01-20T01:33:31.302Z,24.70
2019-01-20T01:34:31.190Z,24.74
2019-01-20T01:35:31.168Z,24.71
2019-01-20T01:36:31.111Z,24.67
2019-01-20T01:37:30.973Z,24.63
2019-01-20T01:38:30.989Z,24.64
2019-01-20T01:39:30.932Z,24.66
2019-01-20T01:40:30.922Z,24.66
2019-01-20T01:41:30.972Z,24.61
2019-01-20T01:42:30.844Z,24.63
2019-01-20T01:43:30.860Z,24.64
2019-01-20T01:44:30.811Z,24.69
2019-01-20T01:45:30.767Z,24.70
2019-01-20T01:46:30.813Z,24.74
2019-01-20T01:47:30.838Z,24.71
2019-01-20T01:48:30.795Z,24.77
2019-01-20T01:49:30.675Z,24.77
2019-01-20T01:50:30.667Z,24.78
2019-01-20T01:51:30.723Z,24.78
2019-01-20T01:52:30.752Z,24.78
2019-01-20T01:53:30.591Z,24.74
2019-01-20T01:54:30.843Z,24.75
2019-01-20T01:55:30.538Z,24.69
2019-01-20T01:56:30.654Z,24.71
2019-01-20T01:57:30.784Z,24.74
2019-01-20T01:58:30.528Z,24.69
2019-01-20T01:59:30.471Z,24.70
2019-01-20T02:00:30.757Z,24.75
2019-01-20T02:01:30.376Z,24.93
2019-01-20T02:02:30.370Z,24.96
2019-01-20T02:03:30.910Z,24.97
2019-01-20T02:04:30.405Z,25.00
2019-01-20T02:05:30.539Z,24.93
2019-01-20T02:06:30.280Z,25.05
2019-01-20T02:07:30.509Z,25.08
2019-01-20T02:08:30.518Z,25.19
2019-01-20T02:09:30.593Z,25.15
2019-01-20T02:10:30.277Z,25.11
2019-01-20T02:11:30.407Z,25.08
2019-01-20T02:12:30.117Z,25.09
2019-01-20T02:13:30.124Z,25.07
2019-01-20T02:14:30.529Z,25.12
2019-01-20T02:15:30.308Z,25.05
2019-01-20T02:16:30.274Z,25.11
2019-01-20T02:17:30.216Z,25.05
2019-01-20T02:18:30.166Z,24.93
2019-01-20T02:19:30.220Z,24.96
2019-01-20T02:20:29.922Z,25.01
2019-01-20T02:21:29.981Z,24.90
2019-01-20T02:22:30.046Z,24.90
2019-01-20T02:23:29.972Z,24.89
2019-01-20T02:24:30.084Z,24.90
2019-01-20T02:25:30.093Z,24.90
2019-01-20T02:26:29.909Z,24.85
2019-01-20T02:27:29.752Z,24.77
2019-01-20T02:28:29.912Z,24.77
2019-01-20T02:29:29.811Z,24.74
2019-01-20T02:30:29.719Z,24.78
2019-01-20T02:31:29.670Z,24.74
2019-01-20T02:32:29.635Z,24.82
2019-01-20T02:33:29.595Z,24.66
2019-01-20T02:34:30.206Z,24.70
2019-01-20T02:35:29.801Z,24.71
2019-01-20T02:36:29.541Z,24.74
2019-01-20T02:37:29.679Z,24.71
2019-01-20T02:38:29.494Z,24.75
2019-01-20T02:39:29.516Z,24.71
2019-01-20T02:40:30.060Z,24.69
2019-01-20T02:41:29.463Z,24.61
2019-01-20T02:42:29.388Z,24.61
2019-01-20T02:43:29.383Z,24.61
2019-01-20T02:44:29.518Z,24.56
2019-01-20T02:45:29.520Z,24.64
2019-01-20T02:46:29.404Z,24.64
2019-01-20T02:47:29.408Z,24.59
2019-01-20T02:48:29.338Z,24.67
2019-01-20T02:49:29.279Z,24.54
2019-01-20T02:50:29.248Z,24.52
2019-01-20T02:51:29.319Z,24.58
2019-01-20T02:52:29.138Z,24.58
2019-01-20T02:53:29.189Z,24.66
2019-01-20T02:54:29.187Z,24.69
2019-01-20T02:55:29.225Z,24.61
2019-01-20T02:56:29.227Z,24.49
2019-01-20T02:57:29.011Z,24.55
2019-01-20T02:58:29.034Z,24.64
2019-01-20T02:59:28.972Z,24.64
2019-01-20T03:00:29.055Z,24.66
2019-01-20T03:01:29.129Z,24.61
2019-01-20T03:02:28.888Z,24.49
2019-01-20T03:03:28.891Z,24.58
2019-01-20T03:04:28.858Z,24.58
2019-01-20T03:05:29.032Z,24.55
2019-01-20T03:06:29.489Z,24.49
2019-01-20T03:07:29.001Z,24.55
2019-01-20T03:08:28.961Z,24.52
2019-01-20T03:09:28.816Z,24.55
2019-01-20T03:10:28.817Z,24.55
2019-01-20T03:11:29.206Z,24.56
2019-01-20T03:12:28.917Z,24.64
2019-01-20T03:13:28.644Z,24.63
2019-01-20T03:14:28.891Z,24.61
2019-01-20T03:15:29.380Z,24.63
2019-01-20T03:16:29.373Z,24.56
2019-01-20T03:17:29.195Z,24.49
2019-01-20T03:18:28.522Z,24.56
2019-01-20T03:19:28.888Z,24.51
2019-01-20T03:20:28.672Z,24.49
2019-01-20T03:21:28.475Z,24.51
2019-01-20T03:22:28.433Z,24.46
2019-01-20T03:23:28.990Z,24.56
2019-01-20T03:24:28.384Z,24.54
2019-01-20T03:25:28.352Z,24.54
2019-01-20T03:26:28.619Z,24.55
2019-01-20T03:27:28.474Z,24.48
2019-01-20T03:28:28.318Z,24.54
2019-01-20T03:29:28.355Z,24.56
2019-01-20T03:30:28.234Z,24.44
2019-01-20T03:31:28.197Z,24.55
2019-01-20T03:32:28.192Z,24.45
2019-01-20T03:33:29.684Z,24.49
2019-01-20T03:34:28.257Z,24.52
2019-01-20T03:35:28.100Z,24.49
2019-01-20T03:36:28.082Z,24.45
2019-01-20T03:37:28.052Z,24.51
2019-01-20T03:38:28.067Z,24.46
2019-01-20T03:39:28.121Z,24.37
2019-01-20T03:40:28.083Z,24.44
2019-01-20T03:41:28.057Z,24.44
2019-01-20T03:42:27.937Z,24.40
2019-01-20T03:43:27.918Z,24.39
2019-01-20T03:44:27.953Z,24.40
2019-01-20T03:45:27.886Z,24.37
2019-01-20T03:46:27.879Z,24.37
2019-01-20T03:47:27.809Z,24.37
2019-01-20T03:48:27.824Z,24.40
2019-01-20T03:49:27.849Z,24.42
2019-01-20T03:50:27.821Z,24.40
2019-01-20T03:51:27.760Z,24.44
2019-01-20T03:52:27.743Z,24.45
2019-01-20T03:53:27.665Z,24.44
2019-01-20T03:54:27.737Z,24.54
2019-01-20T03:55:27.965Z,24.40
2019-01-20T03:56:27.785Z,24.49
2019-01-20T03:57:27.593Z,24.51
2019-01-20T03:58:27.634Z,24.49
2019-01-20T03:59:27.574Z,24.54
2019-01-20T04:00:27.631Z,24.49
2019-01-20T04:01:27.479Z,24.58
2019-01-20T04:02:27.485Z,24.58
2019-01-20T04:03:27.424Z,24.45
2019-01-20T04:04:27.416Z,24.45
2019-01-20T04:05:27.422Z,24.45
2019-01-20T04:06:27.413Z,24.48
2019-01-20T04:07:27.321Z,24.44
2019-01-20T04:08:27.291Z,24.45
2019-01-20T04:09:27.306Z,24.39
2019-01-20T04:10:27.509Z,24.36
2019-01-20T04:11:27.544Z,24.34
2019-01-20T04:12:27.254Z,24.37
2019-01-20T04:13:27.168Z,24.24
2019-01-20T04:14:27.149Z,24.32
2019-01-20T04:15:27.125Z,24.22
2019-01-20T04:16:27.231Z,24.18
2019-01-20T04:17:27.078Z,24.22
2019-01-20T04:18:27.140Z,24.26
2019-01-20T04:19:27.089Z,24.29
2019-01-20T04:20:28.923Z,24.27
2019-01-20T04:21:27.007Z,24.27
2019-01-20T04:22:26.957Z,24.21
2019-01-20T04:23:26.936Z,24.22
2019-01-20T04:24:26.901Z,24.18
2019-01-20T04:25:26.919Z,24.26
2019-01-20T04:26:26.912Z,24.27
2019-01-20T04:27:26.795Z,24.19
2019-01-20T04:28:26.813Z,24.14
2019-01-20T04:29:26.781Z,24.15
2019-01-20T04:30:26.743Z,24.15
2019-01-20T04:31:26.758Z,24.19
2019-01-20T04:32:26.808Z,24.14
2019-01-20T04:33:26.671Z,24.17
2019-01-20T04:34:26.649Z,24.07
2019-01-20T04:35:26.631Z,24.07
2019-01-20T04:36:26.621Z,24.09
2019-01-20T04:37:26.671Z,24.15
2019-01-20T04:38:26.592Z,24.12
2019-01-20T04:39:26.524Z,24.12
2019-01-20T04:40:26.493Z,24.14
2019-01-20T04:41:26.473Z,24.09
2019-01-20T04:42:29.179Z,24.12
2019-01-20T04:44:26.458Z,24.11
2019-01-20T04:45:26.374Z,24.22
2019-01-20T04:46:26.357Z,24.17
2019-01-20T04:47:26.327Z,24.11
2019-01-20T04:48:26.297Z,24.12
2019-01-20T04:49:26.279Z,24.14
2019-01-20T04:50:26.353Z,24.07
2019-01-20T04:51:26.224Z,24.08
2019-01-20T04:52:26.220Z,24.15
2019-01-20T04:53:26.175Z,24.12
2019-01-20T04:54:26.160Z,24.12
2019-01-20T04:55:26.303Z,24.07
2019-01-20T04:56:26.112Z,24.08
2019-01-20T04:57:26.074Z,24.08
2019-01-20T04:58:26.062Z,23.99
2019-01-20T04:59:26.009Z,24.00
2019-01-20T05:00:26.097Z,23.99
2019-01-20T05:01:25.967Z,23.99
2019-01-20T05:02:25.959Z,23.93
2019-01-20T05:03:25.911Z,23.94
2019-01-20T05:04:25.901Z,23.90
2019-01-20T05:05:25.928Z,23.97
2019-01-20T05:06:25.941Z,23.93
2019-01-20T05:07:25.840Z,23.93
2019-01-20T05:08:27.546Z,23.90
2019-01-20T05:09:25.769Z,23.89
2019-01-20T05:10:25.731Z,23.89
2019-01-20T05:11:25.769Z,23.90
2019-01-20T05:12:25.705Z,23.87
2019-01-20T05:13:25.673Z,23.85
2019-01-20T05:14:25.640Z,23.90
2019-01-20T05:15:25.615Z,23.82
2019-01-20T05:16:25.709Z,23.84
2019-01-20T05:17:25.571Z,23.81
2019-01-20T05:18:25.565Z,23.84
2019-01-20T05:19:25.514Z,23.82
2019-01-20T05:20:25.485Z,23.87
2019-01-20T05:21:25.463Z,23.84
2019-01-20T05:22:25.562Z,23.84
2019-01-20T05:23:25.461Z,23.79
2019-01-20T05:24:26.641Z,23.81
2019-01-20T05:25:25.388Z,23.75
2019-01-20T05:26:25.615Z,23.81
2019-01-20T05:27:25.325Z,23.75
2019-01-20T05:28:25.344Z,23.78
2019-01-20T05:29:25.292Z,23.75
2019-01-20T05:30:25.391Z,23.77
2019-01-20T05:31:25.206Z,23.77
2019-01-20T05:32:25.204Z,23.74
2019-01-20T05:33:25.278Z,23.82
2019-01-20T05:34:25.144Z,23.72
2019-01-20T05:35:25.115Z,23.72
2019-01-20T05:36:25.086Z,23.78
2019-01-20T05:37:25.088Z,23.72
2019-01-20T05:38:25.094Z,23.64
2019-01-20T05:39:25.009Z,23.64
2019-01-20T05:40:24.985Z,23.71
2019-01-20T05:41:24.986Z,23.59
2019-01-20T05:42:24.936Z,23.59
2019-01-20T05:43:24.975Z,23.70
2019-01-20T05:44:27.669Z,23.60
2019-01-20T05:45:24.885Z,23.63
2019-01-20T05:46:24.876Z,23.70
2019-01-20T05:47:24.813Z,23.62
2019-01-20T05:48:24.826Z,23.62
2019-01-20T05:49:24.777Z,23.66
2019-01-20T05:50:24.770Z,23.66
2019-01-20T05:51:24.697Z,23.66
2019-01-20T05:52:24.698Z,23.67
2019-01-20T05:53:26.210Z,23.66
2019-01-20T05:54:25.285Z,23.66
2019-01-20T05:55:24.659Z,23.63
2019-01-20T05:56:24.646Z,23.70
2019-01-20T05:57:24.564Z,23.64
2019-01-20T05:58:24.572Z,23.64
2019-01-20T05:59:24.500Z,23.64
2019-01-20T06:00:24.489Z,23.63
2019-01-20T06:01:24.538Z,23.66
2019-01-20T06:02:24.497Z,23.64
2019-01-20T06:03:24.386Z,23.71
2019-01-20T06:04:24.391Z,23.67
2019-01-20T06:05:24.364Z,23.67
2019-01-20T06:06:24.334Z,23.66
2019-01-20T06:07:24.361Z,23.63
2019-01-20T06:08:24.361Z,23.60
2019-01-20T06:09:24.232Z,23.64
2019-01-20T06:10:24.233Z,23.59
2019-01-20T06:11:24.241Z,23.64
2019-01-20T06:12:24.232Z,23.66
2019-01-20T06:13:24.184Z,23.60
2019-01-20T06:14:24.124Z,23.63
2019-01-20T06:15:24.099Z,23.59
2019-01-20T06:16:24.153Z,23.55
2019-01-20T06:17:24.039Z,23.48
2019-01-20T06:18:24.122Z,23.57
2019-01-20T06:19:23.990Z,23.63
2019-01-20T06:20:23.959Z,23.55
2019-01-20T06:21:23.935Z,23.47
2019-01-20T06:22:23.899Z,23.57
2019-01-20T06:23:23.978Z,23.53
2019-01-20T06:24:23.859Z,23.59
2019-01-20T06:25:23.851Z,23.53
2019-01-20T06:26:23.812Z,23.57
2019-01-20T06:27:23.770Z,23.56
2019-01-20T06:28:23.797Z,23.56
2019-01-20T06:29:23.814Z,23.50
2019-01-20T06:30:23.693Z,23.44
2019-01-20T06:31:23.707Z,23.47
2019-01-20T06:32:23.668Z,23.42
2019-01-20T06:33:23.674Z,23.32
2019-01-20T06:34:23.642Z,23.28
2019-01-20T06:35:23.592Z,23.34
2019-01-20T06:36:23.558Z,23.29
2019-01-20T06:37:23.512Z,23.38
2019-01-20T06:38:23.610Z,23.29
2019-01-20T06:39:23.456Z,23.22
2019-01-20T06:40:23.495Z,23.16
2019-01-20T06:41:23.422Z,23.15
2019-01-20T06:42:23.373Z,23.16
2019-01-20T06:43:23.360Z,23.14
2019-01-20T06:44:23.397Z,23.25
2019-01-20T06:45:23.305Z,23.21
2019-01-20T06:46:23.309Z,23.22
2019-01-20T06:47:23.265Z,23.16
2019-01-20T06:48:23.241Z,23.19
2019-01-20T06:49:23.350Z,23.22
2019-01-20T06:50:23.185Z,23.19
2019-01-20T06:51:23.168Z,23.15
2019-01-20T06:52:23.123Z,23.15
2019-01-20T06:53:23.103Z,23.15
2019-01-20T06:54:23.098Z,23.09
2019-01-20T06:55:23.157Z,23.14
2019-01-20T06:56:23.019Z,23.15
2019-01-20T06:57:23.006Z,23.18
2019-01-20T06:58:23.013Z,23.21
2019-01-20T06:59:22.967Z,23.18
2019-01-20T07:00:22.992Z,23.16
2019-01-20T07:01:22.895Z,23.14
2019-01-20T07:02:22.891Z,23.15
2019-01-20T07:03:22.849Z,23.12
2019-01-20T07:04:22.838Z,23.14
2019-01-20T07:05:22.856Z,23.19
2019-01-20T07:06:22.767Z,23.10
2019-01-20T07:07:22.787Z,23.19
2019-01-20T07:08:22.718Z,23.12
2019-01-20T07:09:22.703Z,23.14
2019-01-20T07:10:22.778Z,23.10
2019-01-20T07:11:22.638Z,23.06
2019-01-20T07:12:22.619Z,23.10
2019-01-20T07:13:22.597Z,23.07
2019-01-20T07:14:22.567Z,23.15
2019-01-20T07:15:22.524Z,23.15
2019-01-20T07:16:22.627Z,23.10
2019-01-20T07:17:22.492Z,23.03
2019-01-20T07:18:22.452Z,23.09
2019-01-20T07:19:22.433Z,23.06
2019-01-20T07:20:22.411Z,23.04
2019-01-20T07:22:22.345Z,23.06
2019-01-20T07:23:22.943Z,23.01
2019-01-20T07:24:22.284Z,23.06
2019-01-20T07:25:22.286Z,22.99
2019-01-20T07:26:22.260Z,23.00
2019-01-20T07:27:22.331Z,23.00
